sensor_id;sensor_type;location;lat;lon;timestamp;pressure;altitude;pressure_sealevel;temperature;humidity
16030;BME280;34770;49.272;11.070;2023-05-11T00:00:29;97449.25;;;12.71;79.76
16030;BME280;34770;49.272;11.070;2023-05-11T00:02:54;97442.09;;;12.70;80.29
16030;BME280;34770;49.272;11.070;2023-05-11T00:05:20;97406.97;;;12.51;80.15
16030;BME280;34770;49.272;11.070;2023-05-11T00:07:45;97447.53;;;12.70;80.34
16030;BME280;34770;49.272;11.070;2023-05-11T00:10:10;97425.81;;;12.52;80.21
16030;BME280;34770;49.272;11.070;2023-05-11T00:12:36;97439.31;;;12.62;80.60
16030;BME280;34770;49.272;11.070;2023-05-11T00:15:01;97438.16;;;12.64;80.45
16030;BME280;34770;49.272;11.070;2023-05-11T00:17:27;97437.41;;;12.54;79.19
16030;BME280;34770;49.272;11.070;2023-05-11T00:19:52;97442.03;;;12.62;80.84
16030;BME280;34770;49.272;11.070;2023-05-11T00:22:17;97434.59;;;12.64;81.26
16030;BME280;34770;49.272;11.070;2023-05-11T00:24:43;97436.19;;;12.74;80.64
16030;BME280;34770;49.272;11.070;2023-05-11T00:27:08;97444.88;;;12.78;80.63
16030;BME280;34770;49.272;11.070;2023-05-11T00:29:33;97444.56;;;12.81;80.82
16030;BME280;34770;49.272;11.070;2023-05-11T00:31:59;97434.63;;;12.72;80.52
16030;BME280;34770;49.272;11.070;2023-05-11T00:34:25;97430.81;;;12.57;79.42
16030;BME280;34770;49.272;11.070;2023-05-11T00:36:50;97427.91;;;12.58;80.66
16030;BME280;34770;49.272;11.070;2023-05-11T00:39:16;97435.91;;;12.60;80.56
16030;BME280;34770;49.272;11.070;2023-05-11T00:41:42;97433.22;;;12.60;80.45
16030;BME280;34770;49.272;11.070;2023-05-11T00:44:08;97433.22;;;12.60;80.26
16030;BME280;34770;49.272;11.070;2023-05-11T00:46:33;97425.56;;;12.63;80.41
16030;BME280;34770;49.272;11.070;2023-05-11T00:48:59;97432.19;;;12.61;79.73
16030;BME280;34770;49.272;11.070;2023-05-11T00:51:24;97416.28;;;12.48;81.04
16030;BME280;34770;49.272;11.070;2023-05-11T00:53:50;97426.44;;;12.64;80.94
16030;BME280;34770;49.272;11.070;2023-05-11T00:56:16;97424.75;;;12.63;80.73
16030;BME280;34770;49.272;11.070;2023-05-11T00:58:41;97423.94;;;12.70;81.10
16030;BME280;34770;49.272;11.070;2023-05-11T01:01:07;97429.59;;;12.77;80.70
16030;BME280;34770;49.272;11.070;2023-05-11T01:03:33;97420.41;;;12.78;81.07
16030;BME280;34770;49.272;11.070;2023-05-11T01:08:43;97412.22;;;12.70;80.51
16030;BME280;34770;49.272;11.070;2023-05-11T01:11:21;97422.28;;;12.77;80.44
16030;BME280;34770;49.272;11.070;2023-05-11T01:13:54;97418.72;;;12.77;80.16
16030;BME280;34770;49.272;11.070;2023-05-11T01:16:22;97431.16;;;12.79;80.21
16030;BME280;34770;49.272;11.070;2023-05-11T01:18:52;97417.16;;;12.74;80.32
16030;BME280;34770;49.272;11.070;2023-05-11T01:21:19;97426.53;;;12.80;80.18
16030;BME280;34770;49.272;11.070;2023-05-11T01:27:19;97422.94;;;12.71;80.26
16030;BME280;34770;49.272;11.070;2023-05-11T01:32:39;97428.34;;;12.46;79.49
16030;BME280;34770;49.272;11.070;2023-05-11T01:35:11;97430.09;;;12.55;80.50
16030;BME280;34770;49.272;11.070;2023-05-11T01:37:40;97381.06;;;12.39;80.85
16030;BME280;34770;49.272;11.070;2023-05-11T01:40:13;97423.72;;;12.64;80.43
16030;BME280;34770;49.272;11.070;2023-05-11T01:42:43;97423.88;;;12.62;80.76
16030;BME280;34770;49.272;11.070;2023-05-11T01:45:10;97395.72;;;12.46;80.89
16030;BME280;34770;49.272;11.070;2023-05-11T01:47:39;97424.06;;;12.69;80.74
16030;BME280;34770;49.272;11.070;2023-05-11T01:50:06;97422.41;;;12.68;80.86
16030;BME280;34770;49.272;11.070;2023-05-11T01:52:34;97421.03;;;12.72;80.85
16030;BME280;34770;49.272;11.070;2023-05-11T01:55:03;97426.69;;;12.53;80.11
16030;BME280;34770;49.272;11.070;2023-05-11T01:57:30;97419.94;;;12.57;80.97
16030;BME280;34770;49.272;11.070;2023-05-11T01:59:56;97408.13;;;12.48;80.92
16030;BME280;34770;49.272;11.070;2023-05-11T02:02:24;97404.31;;;12.41;81.21
16030;BME280;34770;49.272;11.070;2023-05-11T02:04:51;97399.13;;;12.48;80.98
16030;BME280;34770;49.272;11.070;2023-05-11T02:07:17;97423.03;;;12.62;81.15
16030;BME280;34770;49.272;11.070;2023-05-11T02:09:44;97424.75;;;12.63;80.90
16030;BME280;34770;49.272;11.070;2023-05-11T02:12:11;97423.97;;;12.53;80.45
16030;BME280;34770;49.272;11.070;2023-05-11T02:14:38;97425.69;;;12.54;80.74
16030;BME280;34770;49.272;11.070;2023-05-11T02:17:05;97421.09;;;12.54;80.69
16030;BME280;34770;49.272;11.070;2023-05-11T02:19:32;97421.94;;;12.55;81.05
16030;BME280;34770;49.272;11.070;2023-05-11T02:21:59;97422.66;;;12.57;80.66
16030;BME280;34770;49.272;11.070;2023-05-11T02:24:26;97406.53;;;12.38;80.58
16030;BME280;34770;49.272;11.070;2023-05-11T02:26:52;97425.75;;;12.44;80.77
16030;BME280;34770;49.272;11.070;2023-05-11T02:29:18;97422.03;;;12.45;81.02
16030;BME280;34770;49.272;11.070;2023-05-11T02:31:46;97410.94;;;12.39;81.18
16030;BME280;34770;49.272;11.070;2023-05-11T02:34:24;97419.94;;;12.39;81.02
16030;BME280;34770;49.272;11.070;2023-05-11T02:36:53;97396.44;;;12.30;81.20
16030;BME280;34770;49.272;11.070;2023-05-11T02:39:20;97423.22;;;12.43;80.98
16030;BME280;34770;49.272;11.070;2023-05-11T02:41:50;97398.16;;;12.13;79.68
16030;BME280;34770;49.272;11.070;2023-05-11T02:44:20;97419.00;;;12.13;80.79
16030;BME280;34770;49.272;11.070;2023-05-11T02:46:47;97417.47;;;11.93;81.55
16030;BME280;34770;49.272;11.070;2023-05-11T02:49:14;97403.81;;;12.02;81.91
16030;BME280;34770;49.272;11.070;2023-05-11T02:51:43;97397.78;;;12.08;81.35
16030;BME280;34770;49.272;11.070;2023-05-11T02:54:11;97422.41;;;12.33;81.48
16030;BME280;34770;49.272;11.070;2023-05-11T02:56:37;97415.53;;;12.20;80.63
16030;BME280;34770;49.272;11.070;2023-05-11T02:59:03;97420.00;;;12.30;81.09
16030;BME280;34770;49.272;11.070;2023-05-11T03:01:29;97419.72;;;12.33;81.00
16030;BME280;34770;49.272;11.070;2023-05-11T03:03:55;97417.22;;;12.39;80.96
16030;BME280;34770;49.272;11.070;2023-05-11T03:06:20;97414.28;;;12.33;80.71
16030;BME280;34770;49.272;11.070;2023-05-11T03:08:46;97417.31;;;12.30;79.66
16030;BME280;34770;49.272;11.070;2023-05-11T03:11:12;97420.34;;;12.27;80.38
16030;BME280;34770;49.272;11.070;2023-05-11T03:13:40;97415.91;;;11.90;80.67
16030;BME280;34770;49.272;11.070;2023-05-11T03:16:07;97413.69;;;12.03;80.31
16030;BME280;34770;49.272;11.070;2023-05-11T03:18:35;97384.03;;;11.75;80.68
16030;BME280;34770;49.272;11.070;2023-05-11T03:21:01;97407.91;;;11.71;80.46
16030;BME280;34770;49.272;11.070;2023-05-11T03:23:28;97348.50;;;11.41;80.75
16030;BME280;34770;49.272;11.070;2023-05-11T03:25:55;97338.56;;;11.32;80.67
16030;BME280;34770;49.272;11.070;2023-05-11T03:28:23;97379.78;;;11.62;80.79
16030;BME280;34770;49.272;11.070;2023-05-11T03:30:51;97376.94;;;11.64;81.20
16030;BME280;34770;49.272;11.070;2023-05-11T03:33:17;97400.69;;;11.80;80.94
16030;BME280;34770;49.272;11.070;2023-05-11T03:35:47;97397.94;;;11.89;80.72
16030;BME280;34770;49.272;11.070;2023-05-11T03:38:15;97329.13;;;11.36;80.73
16030;BME280;34770;49.272;11.070;2023-05-11T03:40:42;97394.56;;;11.78;80.64
16030;BME280;34770;49.272;11.070;2023-05-11T03:43:11;97400.69;;;11.80;80.35
16030;BME280;34770;49.272;11.070;2023-05-11T03:45:41;97402.84;;;11.49;80.74
16030;BME280;34770;49.272;11.070;2023-05-11T03:48:08;97299.94;;;11.02;80.96
16030;BME280;34770;49.272;11.070;2023-05-11T03:50:37;97405.19;;;11.71;81.13
16030;BME280;34770;49.272;11.070;2023-05-11T03:53:06;97397.69;;;11.83;81.39
16030;BME280;34770;49.272;11.070;2023-05-11T03:55:33;97304.69;;;11.18;81.34
16030;BME280;34770;49.272;11.070;2023-05-11T03:57:59;97333.34;;;11.48;81.38
16030;BME280;34770;49.272;11.070;2023-05-11T04:00:25;97287.44;;;11.37;81.02
16030;BME280;34770;49.272;11.070;2023-05-11T04:02:51;97375.72;;;11.94;80.94
16030;BME280;34770;49.272;11.070;2023-05-11T04:05:19;97344.56;;;11.80;80.50
16030;BME280;34770;49.272;11.070;2023-05-11T04:07:45;97286.50;;;11.46;80.39
16030;BME280;34770;49.272;11.070;2023-05-11T04:10:11;97408.56;;;12.18;80.71
16030;BME280;34770;49.272;11.070;2023-05-11T04:12:39;97328.56;;;11.77;80.63
16030;BME280;34770;49.272;11.070;2023-05-11T04:15:05;97337.97;;;11.83;80.72
16030;BME280;34770;49.272;11.070;2023-05-11T04:17:31;97384.13;;;12.00;79.59
16030;BME280;34770;49.272;11.070;2023-05-11T04:19:57;97274.50;;;11.31;79.21
16030;BME280;34770;49.272;11.070;2023-05-11T04:22:23;97323.19;;;11.50;79.92
16030;BME280;34770;49.272;11.070;2023-05-11T04:24:49;97330.63;;;11.48;79.81
16030;BME280;34770;49.272;11.070;2023-05-11T04:27:17;97369.91;;;11.71;79.59
16030;BME280;34770;49.272;11.070;2023-05-11T04:29:45;97375.56;;;11.78;79.55
16030;BME280;34770;49.272;11.070;2023-05-11T04:32:13;97342.00;;;11.51;79.23
16030;BME280;34770;49.272;11.070;2023-05-11T04:34:40;97400.03;;;11.95;79.46
16030;BME280;34770;49.272;11.070;2023-05-11T04:37:06;97395.66;;;11.85;79.67
16030;BME280;34770;49.272;11.070;2023-05-11T04:39:33;97340.19;;;11.25;79.75
16030;BME280;34770;49.272;11.070;2023-05-11T04:41:59;97297.13;;;10.94;80.35
16030;BME280;34770;49.272;11.070;2023-05-11T04:44:26;97393.47;;;11.71;80.66
16030;BME280;34770;49.272;11.070;2023-05-11T04:46:55;97355.88;;;11.48;80.47
16030;BME280;34770;49.272;11.070;2023-05-11T04:49:21;97377.63;;;11.66;80.33
16030;BME280;34770;49.272;11.070;2023-05-11T04:51:47;97396.19;;;11.88;80.39
16030;BME280;34770;49.272;11.070;2023-05-11T04:54:13;97286.00;;;10.97;79.62
16030;BME280;34770;49.272;11.070;2023-05-11T04:56:40;97408.28;;;11.76;80.10
16030;BME280;34770;49.272;11.070;2023-05-11T04:59:06;97336.66;;;11.42;80.22
16030;BME280;34770;49.272;11.070;2023-05-11T05:01:32;97324.78;;;11.43;80.18
16030;BME280;34770;49.272;11.070;2023-05-11T05:03:58;97401.19;;;11.93;80.58
16030;BME280;34770;49.272;11.070;2023-05-11T05:06:24;97293.16;;;11.16;80.13
16030;BME280;34770;49.272;11.070;2023-05-11T05:08:50;97289.06;;;11.30;80.32
16030;BME280;34770;49.272;11.070;2023-05-11T05:11:16;97414.91;;;12.09;80.26
16030;BME280;34770;49.272;11.070;2023-05-11T05:13:43;97299.56;;;11.42;79.42
16030;BME280;34770;49.272;11.070;2023-05-11T05:16:09;97343.03;;;11.68;78.20
16030;BME280;34770;49.272;11.070;2023-05-11T05:18:35;97303.63;;;11.29;79.32
16030;BME280;34770;49.272;11.070;2023-05-11T05:21:01;97412.06;;;11.93;79.55
16030;BME280;34770;49.272;11.070;2023-05-11T05:23:27;97367.06;;;11.63;79.10
16030;BME280;34770;49.272;11.070;2023-05-11T05:25:53;97310.19;;;11.26;79.54
16030;BME280;34770;49.272;11.070;2023-05-11T05:28:19;97414.28;;;11.97;79.63
16030;BME280;34770;49.272;11.070;2023-05-11T05:30:45;97382.56;;;11.53;79.09
16030;BME280;34770;49.272;11.070;2023-05-11T05:33:11;97356.44;;;11.52;79.25
16030;BME280;34770;49.272;11.070;2023-05-11T05:35:37;97319.81;;;11.21;79.16
16030;BME280;34770;49.272;11.070;2023-05-11T05:38:03;97345.66;;;11.42;79.96
16030;BME280;34770;49.272;11.070;2023-05-11T05:40:29;97432.53;;;11.87;79.28
16030;BME280;34770;49.272;11.070;2023-05-11T05:42:55;97362.78;;;11.43;79.61
16030;BME280;34770;49.272;11.070;2023-05-11T05:45:21;97404.75;;;11.66;80.31
16030;BME280;34770;49.272;11.070;2023-05-11T05:47:47;97419.13;;;12.03;80.14
16030;BME280;34770;49.272;11.070;2023-05-11T05:50:13;97421.25;;;11.82;79.88
16030;BME280;34770;49.272;11.070;2023-05-11T05:52:39;97392.47;;;11.44;80.98
16030;BME280;34770;49.272;11.070;2023-05-11T05:55:06;97318.34;;;11.26;80.72
16030;BME280;34770;49.272;11.070;2023-05-11T05:57:32;97449.03;;;11.94;79.20
16030;BME280;34770;49.272;11.070;2023-05-11T05:59:58;97328.22;;;11.45;79.87
16030;BME280;34770;49.272;11.070;2023-05-11T06:02:24;97431.28;;;11.99;79.48
16030;BME280;34770;49.272;11.070;2023-05-11T06:04:50;97453.59;;;11.93;79.58
16030;BME280;34770;49.272;11.070;2023-05-11T06:07:15;97403.03;;;11.75;79.76
16030;BME280;34770;49.272;11.070;2023-05-11T06:09:41;97369.75;;;11.45;79.42
16030;BME280;34770;49.272;11.070;2023-05-11T06:12:07;97433.13;;;11.99;79.60
16030;BME280;34770;49.272;11.070;2023-05-11T06:14:34;97435.41;;;12.03;79.77
16030;BME280;34770;49.272;11.070;2023-05-11T06:17:00;97432.06;;;11.92;80.22
16030;BME280;34770;49.272;11.070;2023-05-11T06:19:25;97427.63;;;11.91;79.32
16030;BME280;34770;49.272;11.070;2023-05-11T06:21:51;97429.34;;;11.92;79.52
16030;BME280;34770;49.272;11.070;2023-05-11T06:24:17;97437.63;;;11.90;79.89
16030;BME280;34770;49.272;11.070;2023-05-11T06:26:42;97425.84;;;11.99;80.22
16030;BME280;34770;49.272;11.070;2023-05-11T06:29:08;97431.44;;;11.98;78.84
16030;BME280;34770;49.272;11.070;2023-05-11T06:31:33;97428.53;;;11.82;80.18
16030;BME280;34770;49.272;11.070;2023-05-11T06:33:59;97426.91;;;11.71;80.79
16030;BME280;34770;49.272;11.070;2023-05-11T06:36:24;97430.34;;;11.91;79.87
16030;BME280;34770;49.272;11.070;2023-05-11T06:38:50;97430.56;;;11.52;79.80
16030;BME280;34770;49.272;11.070;2023-05-11T06:41:15;97425.09;;;11.62;80.26
16030;BME280;34770;49.272;11.070;2023-05-11T06:43:41;97430.34;;;11.73;80.28
16030;BME280;34770;49.272;11.070;2023-05-11T06:46:06;97412.81;;;11.58;80.20
16030;BME280;34770;49.272;11.070;2023-05-11T06:48:32;97421.34;;;11.63;79.94
16030;BME280;34770;49.272;11.070;2023-05-11T06:50:57;97433.47;;;11.41;80.62
16030;BME280;34770;49.272;11.070;2023-05-11T06:53:23;97427.78;;;11.62;80.37
16030;BME280;34770;49.272;11.070;2023-05-11T06:55:48;97432.31;;;11.71;80.92
16030;BME280;34770;49.272;11.070;2023-05-11T06:58:14;97427.75;;;11.44;80.58
16030;BME280;34770;49.272;11.070;2023-05-11T07:00:41;97430.09;;;11.30;81.74
16030;BME280;34770;49.272;11.070;2023-05-11T07:03:06;97435.78;;;11.36;81.14
16030;BME280;34770;49.272;11.070;2023-05-11T07:05:32;97427.06;;;11.42;80.51
16030;BME280;34770;49.272;11.070;2023-05-11T07:07:57;97435.59;;;11.65;80.88
16030;BME280;34770;49.272;11.070;2023-05-11T07:10:23;97428.09;;;11.59;80.23
16030;BME280;34770;49.272;11.070;2023-05-11T07:12:48;97436.28;;;11.49;80.63
16030;BME280;34770;49.272;11.070;2023-05-11T07:15:14;97432.97;;;11.55;80.80
16030;BME280;34770;49.272;11.070;2023-05-11T07:17:40;97442.25;;;11.53;80.69
16030;BME280;34770;49.272;11.070;2023-05-11T07:20:06;97433.53;;;11.59;80.07
16030;BME280;34770;49.272;11.070;2023-05-11T07:22:32;97433.81;;;11.56;79.76
16030;BME280;34770;49.272;11.070;2023-05-11T07:24:59;97443.31;;;11.42;80.85
16030;BME280;34770;49.272;11.070;2023-05-11T07:27:25;97435.22;;;11.33;80.57
16030;BME280;34770;49.272;11.070;2023-05-11T07:29:50;97438.38;;;11.55;80.03
16030;BME280;34770;49.272;11.070;2023-05-11T07:32:16;97412.38;;;11.35;79.27
16030;BME280;34770;49.272;11.070;2023-05-11T07:34:43;97435.50;;;11.57;80.53
16030;BME280;34770;49.272;11.070;2023-05-11T07:37:08;97447.47;;;11.64;80.58
16030;BME280;34770;49.272;11.070;2023-05-11T07:39:34;97446.22;;;11.86;80.57
16030;BME280;34770;49.272;11.070;2023-05-11T07:41:59;97422.34;;;11.35;79.57
16030;BME280;34770;49.272;11.070;2023-05-11T07:44:25;97439.88;;;11.40;81.19
16030;BME280;34770;49.272;11.070;2023-05-11T07:46:51;97427.16;;;11.68;80.80
16030;BME280;34770;49.272;11.070;2023-05-11T07:49:16;97443.38;;;11.87;79.79
16030;BME280;34770;49.272;11.070;2023-05-11T07:51:41;97430.34;;;11.73;78.71
16030;BME280;34770;49.272;11.070;2023-05-11T07:54:07;97452.44;;;11.96;79.53
16030;BME280;34770;49.272;11.070;2023-05-11T07:56:32;97431.72;;;11.77;79.24
16030;BME280;34770;49.272;11.070;2023-05-11T07:58:58;97445.16;;;11.79;79.80
16030;BME280;34770;49.272;11.070;2023-05-11T08:01:23;97455.94;;;11.88;79.84
16030;BME280;34770;49.272;11.070;2023-05-11T08:03:49;97452.09;;;11.54;80.63
16030;BME280;34770;49.272;11.070;2023-05-11T08:06:14;97449.72;;;11.78;79.95
16030;BME280;34770;49.272;11.070;2023-05-11T08:08:40;97440.03;;;11.93;79.64
16030;BME280;34770;49.272;11.070;2023-05-11T08:11:05;97445.47;;;12.11;79.60
16030;BME280;34770;49.272;11.070;2023-05-11T08:13:31;97444.47;;;11.94;79.23
16030;BME280;34770;49.272;11.070;2023-05-11T08:15:56;97442.44;;;11.79;79.68
16030;BME280;34770;49.272;11.070;2023-05-11T08:18:22;97451.72;;;11.76;79.48
16030;BME280;34770;49.272;11.070;2023-05-11T08:20:48;97446.22;;;11.86;79.63
16030;BME280;34770;49.272;11.070;2023-05-11T08:23:13;97444.63;;;11.38;80.13
16030;BME280;34770;49.272;11.070;2023-05-11T08:25:52;97428.03;;;11.69;80.66
16030;BME280;34770;49.272;11.070;2023-05-11T08:28:19;97457.25;;;12.02;79.35
16030;BME280;34770;49.272;11.070;2023-05-11T08:30:45;97444.47;;;11.94;79.14
16030;BME280;34770;49.272;11.070;2023-05-11T08:33:11;97448.19;;;11.93;79.75
16030;BME280;34770;49.272;11.070;2023-05-11T08:35:38;97439.03;;;11.94;78.85
16030;BME280;34770;49.272;11.070;2023-05-11T08:38:04;97442.63;;;12.12;79.88
16030;BME280;34770;49.272;11.070;2023-05-11T08:40:29;97447.34;;;12.28;79.47
16030;BME280;34770;49.272;11.070;2023-05-11T08:42:55;97431.66;;;12.04;79.00
16030;BME280;34770;49.272;11.070;2023-05-11T08:45:21;97451.63;;;12.48;79.36
16030;BME280;34770;49.272;11.070;2023-05-11T08:47:47;97432.41;;;12.67;78.71
16030;BME280;34770;49.272;11.070;2023-05-11T08:50:14;97446.44;;;12.37;78.30
16030;BME280;34770;49.272;11.070;2023-05-11T08:52:39;97448.72;;;12.50;78.70
16030;BME280;34770;49.272;11.070;2023-05-11T08:55:06;97434.88;;;12.17;79.02
16030;BME280;34770;49.272;11.070;2023-05-11T08:57:33;97440.69;;;12.23;78.92
16030;BME280;34770;49.272;11.070;2023-05-11T09:00:00;97438.72;;;11.97;79.74
16030;BME280;34770;49.272;11.070;2023-05-11T09:02:27;97443.00;;;12.35;79.56
16030;BME280;34770;49.272;11.070;2023-05-11T09:04:53;97450.44;;;12.51;78.95
16030;BME280;34770;49.272;11.070;2023-05-11T09:07:20;97442.97;;;12.70;78.69
16030;BME280;34770;49.272;11.070;2023-05-11T09:09:47;97439.88;;;12.65;78.51
16030;BME280;34770;49.272;11.070;2023-05-11T09:12:13;97439.34;;;12.44;78.18
16030;BME280;34770;49.272;11.070;2023-05-11T09:14:39;97439.47;;;12.60;79.07
16030;BME280;34770;49.272;11.070;2023-05-11T09:17:05;97430.97;;;12.38;77.74
16030;BME280;34770;49.272;11.070;2023-05-11T09:19:30;97434.59;;;12.46;78.71
16030;BME280;34770;49.272;11.070;2023-05-11T09:21:58;97443.16;;;12.34;78.76
16030;BME280;34770;49.272;11.070;2023-05-11T09:24:23;97436.66;;;12.27;77.70
16030;BME280;34770;49.272;11.070;2023-05-11T09:27:05;97436.84;;;12.15;79.30
16030;BME280;34770;49.272;11.070;2023-05-11T09:29:31;97437.47;;;12.45;79.68
16030;BME280;34770;49.272;11.070;2023-05-11T09:31:56;97433.38;;;12.23;79.43
16030;BME280;34770;49.272;11.070;2023-05-11T09:34:22;97446.00;;;12.50;77.74
16030;BME280;34770;49.272;11.070;2023-05-11T09:36:55;97440.31;;;12.61;79.31
16030;BME280;34770;49.272;11.070;2023-05-11T09:39:31;97436.88;;;12.33;78.73
16030;BME280;34770;49.272;11.070;2023-05-11T09:42:15;97423.75;;;12.72;78.79
16030;BME280;34770;49.272;11.070;2023-05-11T09:44:42;97437.97;;;12.84;77.78
16030;BME280;34770;49.272;11.070;2023-05-11T09:47:16;97441.34;;;12.86;77.94
16030;BME280;34770;49.272;11.070;2023-05-11T09:49:43;97429.25;;;12.54;77.94
16030;BME280;34770;49.272;11.070;2023-05-11T09:52:11;97442.97;;;12.53;78.20
16030;BME280;34770;49.272;11.070;2023-05-11T09:54:44;97440.25;;;12.53;77.74
16030;BME280;34770;49.272;11.070;2023-05-11T09:57:30;97434.00;;;12.35;78.79
16030;BME280;34770;49.272;11.070;2023-05-11T09:59:57;97438.34;;;12.28;77.92
16030;BME280;34770;49.272;11.070;2023-05-11T10:02:31;97429.44;;;12.17;79.33
16030;BME280;34770;49.272;11.070;2023-05-11T10:04:59;97439.19;;;12.46;79.90
16030;BME280;34770;49.272;11.070;2023-05-11T10:07:34;97408.28;;;12.47;78.35
16030;BME280;34770;49.272;11.070;2023-05-11T10:10:04;97404.69;;;12.64;77.86
16030;BME280;34770;49.272;11.070;2023-05-11T10:12:31;97428.59;;;12.60;78.90
16030;BME280;34770;49.272;11.070;2023-05-11T10:15:02;97423.06;;;12.70;78.20
16030;BME280;34770;49.272;11.070;2023-05-11T10:17:28;97419.69;;;12.68;79.16
16030;BME280;34770;49.272;11.070;2023-05-11T10:19:55;97415.03;;;12.86;76.02
16030;BME280;34770;49.272;11.070;2023-05-11T10:22:23;97425.84;;;12.78;77.75
16030;BME280;34770;49.272;11.070;2023-05-11T10:24:49;97414.28;;;12.76;78.58
16030;BME280;34770;49.272;11.070;2023-05-11T10:27:15;97424.09;;;12.95;77.04
16030;BME280;34770;49.272;11.070;2023-05-11T10:29:41;97423.91;;;12.88;79.14
16030;BME280;34770;49.272;11.070;2023-05-11T10:32:09;97418.28;;;13.07;78.80
16030;BME280;34770;49.272;11.070;2023-05-11T10:34:36;97424.75;;;13.14;79.05
16030;BME280;34770;49.272;11.070;2023-05-11T10:37:03;97406.56;;;13.15;78.76
16030;BME280;34770;49.272;11.070;2023-05-11T10:39:29;97416.66;;;12.97;78.03
16030;BME280;34770;49.272;11.070;2023-05-11T10:42:02;97418.47;;;12.88;77.96
16030;BME280;34770;49.272;11.070;2023-05-11T10:44:57;97422.91;;;12.97;78.57
16030;BME280;34770;49.272;11.070;2023-05-11T10:50:36;97409.75;;;12.59;77.46
16030;BME280;34770;49.272;11.070;2023-05-11T10:53:38;97406.72;;;12.44;79.70
16030;BME280;34770;49.272;11.070;2023-05-11T10:56:29;97398.22;;;12.39;78.67
16030;BME280;34770;49.272;11.070;2023-05-11T10:59:09;97405.72;;;12.45;79.66
16030;BME280;34770;49.272;11.070;2023-05-11T11:01:41;97381.78;;;12.23;79.20
16030;BME280;34770;49.272;11.070;2023-05-11T11:04:16;97402.34;;;12.69;79.83
16030;BME280;34770;49.272;11.070;2023-05-11T11:06:43;97402.78;;;12.82;78.94
16030;BME280;34770;49.272;11.070;2023-05-11T11:09:17;97410.63;;;12.85;78.51
16030;BME280;34770;49.272;11.070;2023-05-11T11:11:45;97408.28;;;12.90;78.71
16030;BME280;34770;49.272;11.070;2023-05-11T11:14:13;97396.84;;;12.61;78.82
16030;BME280;34770;49.272;11.070;2023-05-11T11:16:39;97389.56;;;12.44;79.19
16030;BME280;34770;49.272;11.070;2023-05-11T11:19:45;97401.41;;;12.35;78.64
16030;BME280;34770;49.272;11.070;2023-05-11T11:25:02;97402.75;;;12.56;79.22
16030;BME280;34770;49.272;11.070;2023-05-11T11:30:26;97409.38;;;12.18;79.69
16030;BME280;34770;49.272;11.070;2023-05-11T11:38:10;97408.31;;;12.11;80.07
16030;BME280;34770;49.272;11.070;2023-05-11T11:40:41;97412.22;;;12.27;79.94
16030;BME280;34770;49.272;11.070;2023-05-11T11:43:24;97403.75;;;11.94;79.36
16030;BME280;34770;49.272;11.070;2023-05-11T11:45:54;97419.09;;;12.21;79.67
16030;BME280;34770;49.272;11.070;2023-05-11T11:48:28;97412.03;;;12.28;80.40
16030;BME280;34770;49.272;11.070;2023-05-11T11:51:11;97423.72;;;12.46;79.98
16030;BME280;34770;49.272;11.070;2023-05-11T12:01:21;97414.59;;;12.30;80.01
16030;BME280;34770;49.272;11.070;2023-05-11T12:06:39;97423.16;;;12.35;79.91
16030;BME280;34770;49.272;11.070;2023-05-11T12:09:05;97423.69;;;12.03;80.32
16030;BME280;34770;49.272;11.070;2023-05-11T12:11:32;97425.78;;;12.27;79.35
16030;BME280;34770;49.272;11.070;2023-05-11T12:14:01;97425.25;;;12.23;80.21
16030;BME280;34770;49.272;11.070;2023-05-11T12:16:27;97418.63;;;12.26;79.80
16030;BME280;34770;49.272;11.070;2023-05-11T12:18:55;97426.84;;;12.51;79.81
16030;BME280;34770;49.272;11.070;2023-05-11T12:21:22;97424.13;;;12.51;79.12
16030;BME280;34770;49.272;11.070;2023-05-11T12:23:52;97425.19;;;12.58;79.13
16030;BME280;34770;49.272;11.070;2023-05-11T12:26:19;97424.44;;;12.13;80.71
16030;BME280;34770;49.272;11.070;2023-05-11T12:29:05;97417.16;;;12.13;80.91
16030;BME280;34770;49.272;11.070;2023-05-11T12:31:35;97429.34;;;12.45;79.50
16030;BME280;34770;49.272;11.070;2023-05-11T12:34:00;97416.84;;;12.52;79.02
16030;BME280;34770;49.272;11.070;2023-05-11T12:36:26;97433.72;;;12.63;79.00
16030;BME280;34770;49.272;11.070;2023-05-11T12:38:51;97430.69;;;12.66;77.86
16030;BME280;34770;49.272;11.070;2023-05-11T12:41:21;97421.41;;;12.16;78.73
16030;BME280;34770;49.272;11.070;2023-05-11T12:43:51;97414.06;;;12.26;79.11
16030;BME280;34770;49.272;11.070;2023-05-11T12:46:18;97432.44;;;12.50;79.07
16030;BME280;34770;49.272;11.070;2023-05-11T12:48:48;97429.50;;;12.69;79.16
16030;BME280;34770;49.272;11.070;2023-05-11T12:51:47;97426.28;;;12.65;78.14
16030;BME280;34770;49.272;11.070;2023-05-11T12:56:51;97415.75;;;12.45;78.93
16030;BME280;34770;49.272;11.070;2023-05-11T12:59:34;97423.13;;;12.78;79.66
16030;BME280;34770;49.272;11.070;2023-05-11T13:04:34;97423.34;;;12.59;78.75
16030;BME280;34770;49.272;11.070;2023-05-11T13:07:01;97416.63;;;12.71;77.94
16030;BME280;34770;49.272;11.070;2023-05-11T13:09:26;97415.56;;;12.90;78.58
16030;BME280;34770;49.272;11.070;2023-05-11T13:12:12;97410.28;;;13.14;77.48
16030;BME280;34770;49.272;11.070;2023-05-11T13:14:38;97403.56;;;12.74;77.08
16030;BME280;34770;49.272;11.070;2023-05-11T13:17:04;97406.50;;;13.07;78.92
16030;BME280;34770;49.272;11.070;2023-05-11T13:19:31;97405.97;;;12.77;78.44
16030;BME280;34770;49.272;11.070;2023-05-11T13:21:57;97401.22;;;12.54;80.41
16030;BME280;34770;49.272;11.070;2023-05-11T13:24:24;97410.50;;;12.69;79.67
16030;BME280;34770;49.272;11.070;2023-05-11T13:26:50;97401.47;;;12.43;77.83
16030;BME280;34770;49.272;11.070;2023-05-11T13:29:17;97404.25;;;12.51;79.97
16030;BME280;34770;49.272;11.070;2023-05-11T13:34:12;97404.88;;;12.88;79.17